sensor_id;sensor_type;location;lat;lon;timestamp;temperature;humidity
46490;DHT22;32204;49.160;8.580;2022-10-16T00:01:13;17.60;99.90
46490;DHT22;32204;49.160;8.580;2022-10-16T00:03:41;17.60;99.90
46490;DHT22;32204;49.160;8.580;2022-10-16T00:06:07;17.60;99.90
46490;DHT22;32204;49.160;8.580;2022-10-16T00:08:34;17.70;99.90
46490;DHT22;32204;49.160;8.580;2022-10-16T00:11:10;17.60;99.90
46490;DHT22;32204;49.160;8.580;2022-10-16T00:13:37;17.60;99.90
46490;DHT22;32204;49.160;8.580;2022-10-16T00:16:03;17.60;99.90
46490;DHT22;32204;49.160;8.580;2022-10-16T00:18:29;17.60;99.90
46490;DHT22;32204;49.160;8.580;2022-10-16T00:20:56;17.50;99.90
46490;DHT22;32204;49.160;8.580;2022-10-16T00:23:26;17.50;99.90
46490;DHT22;32204;49.160;8.580;2022-10-16T00:26:00;17.50;99.90
46490;DHT22;32204;49.160;8.580;2022-10-16T00:28:27;17.50;99.90
46490;DHT22;32204;49.160;8.580;2022-10-16T00:30:53;17.50;99.90
46490;DHT22;32204;49.160;8.580;2022-10-16T00:33:19;17.60;99.90
46490;DHT22;32204;49.160;8.580;2022-10-16T00:35:44;17.70;99.90
46490;DHT22;32204;49.160;8.580;2022-10-16T00:38:10;17.80;99.90
46490;DHT22;32204;49.160;8.580;2022-10-16T00:40:36;17.80;99.90
46490;DHT22;32204;49.160;8.580;2022-10-16T00:43:02;17.70;99.90
46490;DHT22;32204;49.160;8.580;2022-10-16T00:45:27;17.60;99.90
46490;DHT22;32204;49.160;8.580;2022-10-16T00:47:55;17.70;99.90
46490;DHT22;32204;49.160;8.580;2022-10-16T00:50:24;17.60;99.90
46490;DHT22;32204;49.160;8.580;2022-10-16T00:52:52;17.70;99.90
46490;DHT22;32204;49.160;8.580;2022-10-16T00:55:18;17.70;99.90
46490;DHT22;32204;49.160;8.580;2022-10-16T00:57:45;17.70;99.90
46490;DHT22;32204;49.160;8.580;2022-10-16T01:00:14;17.70;99.90
46490;DHT22;32204;49.160;8.580;2022-10-16T01:02:41;17.70;99.90
46490;DHT22;32204;49.160;8.580;2022-10-16T01:05:07;17.70;99.90
46490;DHT22;32204;49.160;8.580;2022-10-16T01:07:52;17.70;99.90
46490;DHT22;32204;49.160;8.580;2022-10-16T01:10:38;17.80;99.90
46490;DHT22;32204;49.160;8.580;2022-10-16T01:13:46;17.80;99.90
46490;DHT22;32204;49.160;8.580;2022-10-16T01:16:13;17.70;99.90
46490;DHT22;32204;49.160;8.580;2022-10-16T01:18:46;17.80;99.90
46490;DHT22;32204;49.160;8.580;2022-10-16T01:21:26;17.80;99.90
46490;DHT22;32204;49.160;8.580;2022-10-16T01:32:00;17.70;99.90
46490;DHT22;32204;49.160;8.580;2022-10-16T01:34:42;17.60;99.90
46490;DHT22;32204;49.160;8.580;2022-10-16T01:37:15;17.70;99.90
46490;DHT22;32204;49.160;8.580;2022-10-16T01:39:45;17.70;99.90
46490;DHT22;32204;49.160;8.580;2022-10-16T01:42:19;17.80;99.90
46490;DHT22;32204;49.160;8.580;2022-10-16T01:44:46;17.80;99.90
46490;DHT22;32204;49.160;8.580;2022-10-16T01:47:13;17.70;99.90
46490;DHT22;32204;49.160;8.580;2022-10-16T01:49:41;17.70;99.90
46490;DHT22;32204;49.160;8.580;2022-10-16T01:52:15;17.80;99.90
46490;DHT22;32204;49.160;8.580;2022-10-16T01:54:44;17.80;99.90
46490;DHT22;32204;49.160;8.580;2022-10-16T01:57:13;17.80;99.90
46490;DHT22;32204;49.160;8.580;2022-10-16T01:59:44;17.70;99.90
46490;DHT22;32204;49.160;8.580;2022-10-16T02:02:13;17.70;99.90
46490;DHT22;32204;49.160;8.580;2022-10-16T02:04:46;17.70;99.90
46490;DHT22;32204;49.160;8.580;2022-10-16T02:07:13;17.70;99.90
46490;DHT22;32204;49.160;8.580;2022-10-16T02:09:39;17.70;99.90
46490;DHT22;32204;49.160;8.580;2022-10-16T02:12:13;17.70;99.90
46490;DHT22;32204;49.160;8.580;2022-10-16T02:14:41;17.70;99.90
46490;DHT22;32204;49.160;8.580;2022-10-16T02:17:14;17.60;99.90
46490;DHT22;32204;49.160;8.580;2022-10-16T02:19:41;17.70;99.90
46490;DHT22;32204;49.160;8.580;2022-10-16T02:22:10;17.70;99.90
46490;DHT22;32204;49.160;8.580;2022-10-16T02:24:43;17.60;99.90
46490;DHT22;32204;49.160;8.580;2022-10-16T02:27:20;17.50;99.90
46490;DHT22;32204;49.160;8.580;2022-10-16T02:29:53;17.50;99.90
46490;DHT22;32204;49.160;8.580;2022-10-16T02:32:26;17.60;99.90
46490;DHT22;32204;49.160;8.580;2022-10-16T02:34:56;17.50;99.90
46490;DHT22;32204;49.160;8.580;2022-10-16T02:37:23;17.40;99.90
46490;DHT22;32204;49.160;8.580;2022-10-16T02:39:50;17.30;99.90
46490;DHT22;32204;49.160;8.580;2022-10-16T02:42:17;17.30;99.90
46490;DHT22;32204;49.160;8.580;2022-10-16T02:44:43;17.30;99.90
46490;DHT22;32204;49.160;8.580;2022-10-16T02:47:09;17.30;99.90
46490;DHT22;32204;49.160;8.580;2022-10-16T02:49:34;17.20;99.90
46490;DHT22;32204;49.160;8.580;2022-10-16T02:52:00;17.30;99.90
46490;DHT22;32204;49.160;8.580;2022-10-16T02:54:25;17.30;99.90
46490;DHT22;32204;49.160;8.580;2022-10-16T02:56:51;17.30;99.90
46490;DHT22;32204;49.160;8.580;2022-10-16T02:59:17;17.20;99.90
46490;DHT22;32204;49.160;8.580;2022-10-16T03:01:42;17.10;99.90
46490;DHT22;32204;49.160;8.580;2022-10-16T03:04:08;16.90;99.90
46490;DHT22;32204;49.160;8.580;2022-10-16T03:06:34;16.90;99.90
46490;DHT22;32204;49.160;8.580;2022-10-16T03:08:59;17.00;99.90
46490;DHT22;32204;49.160;8.580;2022-10-16T03:11:25;17.00;99.90
46490;DHT22;32204;49.160;8.580;2022-10-16T03:13:52;17.10;99.90
46490;DHT22;32204;49.160;8.580;2022-10-16T03:16:17;17.10;99.90
46490;DHT22;32204;49.160;8.580;2022-10-16T03:18:43;17.10;99.90
46490;DHT22;32204;49.160;8.580;2022-10-16T03:21:08;17.10;99.90
46490;DHT22;32204;49.160;8.580;2022-10-16T03:23:34;17.20;99.90
46490;DHT22;32204;49.160;8.580;2022-10-16T03:25:59;17.20;99.90
46490;DHT22;32204;49.160;8.580;2022-10-16T03:28:25;17.20;99.90
46490;DHT22;32204;49.160;8.580;2022-10-16T03:30:51;17.30;99.90
46490;DHT22;32204;49.160;8.580;2022-10-16T03:33:16;17.30;99.90
46490;DHT22;32204;49.160;8.580;2022-10-16T03:35:42;17.20;99.90
46490;DHT22;32204;49.160;8.580;2022-10-16T03:38:08;17.20;99.90
46490;DHT22;32204;49.160;8.580;2022-10-16T03:40:33;17.20;99.90
46490;DHT22;32204;49.160;8.580;2022-10-16T03:42:59;17.20;99.90
46490;DHT22;32204;49.160;8.580;2022-10-16T03:45:25;17.20;99.90
46490;DHT22;32204;49.160;8.580;2022-10-16T03:47:51;17.20;99.90
46490;DHT22;32204;49.160;8.580;2022-10-16T03:50:17;17.20;99.90
46490;DHT22;32204;49.160;8.580;2022-10-16T03:52:42;17.20;99.90
46490;DHT22;32204;49.160;8.580;2022-10-16T03:55:08;17.20;99.90
46490;DHT22;32204;49.160;8.580;2022-10-16T03:57:34;17.20;99.90
46490;DHT22;32204;49.160;8.580;2022-10-16T03:59:59;17.20;99.90
46490;DHT22;32204;49.160;8.580;2022-10-16T04:02:25;17.20;99.90
46490;DHT22;32204;49.160;8.580;2022-10-16T04:04:50;17.20;99.90
46490;DHT22;32204;49.160;8.580;2022-10-16T04:07:16;17.30;99.90
46490;DHT22;32204;49.160;8.580;2022-10-16T04:09:42;17.30;99.90
46490;DHT22;32204;49.160;8.580;2022-10-16T04:12:08;17.20;99.90
46490;DHT22;32204;49.160;8.580;2022-10-16T04:14:33;16.90;99.90
46490;DHT22;32204;49.160;8.580;2022-10-16T04:16:59;16.80;99.90
46490;DHT22;32204;49.160;8.580;2022-10-16T04:19:25;16.90;99.90
46490;DHT22;32204;49.160;8.580;2022-10-16T04:21:51;16.90;99.90
46490;DHT22;32204;49.160;8.580;2022-10-16T04:24:16;16.80;99.90
46490;DHT22;32204;49.160;8.580;2022-10-16T04:26:42;16.80;99.90
46490;DHT22;32204;49.160;8.580;2022-10-16T04:29:08;16.80;99.90
46490;DHT22;32204;49.160;8.580;2022-10-16T04:31:33;16.80;99.90
46490;DHT22;32204;49.160;8.580;2022-10-16T04:33:59;16.70;99.90
46490;DHT22;32204;49.160;8.580;2022-10-16T04:36:25;16.80;99.90
46490;DHT22;32204;49.160;8.580;2022-10-16T04:38:50;16.90;99.90
46490;DHT22;32204;49.160;8.580;2022-10-16T04:41:16;16.90;99.90
46490;DHT22;32204;49.160;8.580;2022-10-16T04:43:41;16.80;99.90
46490;DHT22;32204;49.160;8.580;2022-10-16T04:46:07;16.80;99.90
46490;DHT22;32204;49.160;8.580;2022-10-16T04:48:33;16.80;99.90
46490;DHT22;32204;49.160;8.580;2022-10-16T04:50:59;16.90;99.90
46490;DHT22;32204;49.160;8.580;2022-10-16T04:53:24;17.00;99.90
46490;DHT22;32204;49.160;8.580;2022-10-16T04:55:50;17.00;99.90
46490;DHT22;32204;49.160;8.580;2022-10-16T04:58:16;17.00;99.90
46490;DHT22;32204;49.160;8.580;2022-10-16T05:00:43;17.10;99.90
46490;DHT22;32204;49.160;8.580;2022-10-16T05:03:09;17.10;99.90
46490;DHT22;32204;49.160;8.580;2022-10-16T05:05:35;17.10;99.90
46490;DHT22;32204;49.160;8.580;2022-10-16T05:08:04;17.20;99.90
46490;DHT22;32204;49.160;8.580;2022-10-16T05:10:30;17.20;99.90
46490;DHT22;32204;49.160;8.580;2022-10-16T05:12:56;17.20;99.90
46490;DHT22;32204;49.160;8.580;2022-10-16T05:15:22;17.20;99.90
46490;DHT22;32204;49.160;8.580;2022-10-16T05:17:52;17.20;99.90
46490;DHT22;32204;49.160;8.580;2022-10-16T05:20:18;17.20;99.90
46490;DHT22;32204;49.160;8.580;2022-10-16T05:22:44;17.20;99.90
46490;DHT22;32204;49.160;8.580;2022-10-16T05:25:09;17.30;99.90
46490;DHT22;32204;49.160;8.580;2022-10-16T05:27:35;17.30;99.90
46490;DHT22;32204;49.160;8.580;2022-10-16T05:30:01;17.30;99.90
46490;DHT22;32204;49.160;8.580;2022-10-16T05:32:26;17.30;99.90
46490;DHT22;32204;49.160;8.580;2022-10-16T05:34:52;17.00;99.90
46490;DHT22;32204;49.160;8.580;2022-10-16T05:37:17;16.90;99.90
46490;DHT22;32204;49.160;8.580;2022-10-16T05:39:43;16.90;99.90
46490;DHT22;32204;49.160;8.580;2022-10-16T05:42:08;16.90;99.90
46490;DHT22;32204;49.160;8.580;2022-10-16T05:44:34;16.90;99.90
46490;DHT22;32204;49.160;8.580;2022-10-16T05:47:00;17.00;99.90
46490;DHT22;32204;49.160;8.580;2022-10-16T05:49:25;17.10;99.90
46490;DHT22;32204;49.160;8.580;2022-10-16T05:51:53;17.10;99.90
46490;DHT22;32204;49.160;8.580;2022-10-16T05:54:22;17.10;99.90
46490;DHT22;32204;49.160;8.580;2022-10-16T05:56:47;17.00;99.90
46490;DHT22;32204;49.160;8.580;2022-10-16T05:59:13;17.10;99.90
46490;DHT22;32204;49.160;8.580;2022-10-16T06:01:38;17.20;99.90
46490;DHT22;32204;49.160;8.580;2022-10-16T06:04:04;17.20;99.90
46490;DHT22;32204;49.160;8.580;2022-10-16T06:06:29;17.30;99.90
46490;DHT22;32204;49.160;8.580;2022-10-16T06:08:56;17.10;99.90
46490;DHT22;32204;49.160;8.580;2022-10-16T06:11:27;17.00;99.90
46490;DHT22;32204;49.160;8.580;2022-10-16T06:13:55;17.00;99.90
46490;DHT22;32204;49.160;8.580;2022-10-16T06:16:26;17.00;99.90
46490;DHT22;32204;49.160;8.580;2022-10-16T06:18:53;17.10;99.90
46490;DHT22;32204;49.160;8.580;2022-10-16T06:21:21;17.20;99.90
46490;DHT22;32204;49.160;8.580;2022-10-16T06:23:47;17.20;99.90
46490;DHT22;32204;49.160;8.580;2022-10-16T06:26:16;17.20;99.90
46490;DHT22;32204;49.160;8.580;2022-10-16T06:28:42;17.30;99.90
46490;DHT22;32204;49.160;8.580;2022-10-16T06:31:09;17.20;99.90
46490;DHT22;32204;49.160;8.580;2022-10-16T06:33:39;17.10;99.90
46490;DHT22;32204;49.160;8.580;2022-10-16T06:36:07;17.10;99.90
46490;DHT22;32204;49.160;8.580;2022-10-16T06:38:34;17.10;99.90
46490;DHT22;32204;49.160;8.580;2022-10-16T06:41:00;17.10;99.90
46490;DHT22;32204;49.160;8.580;2022-10-16T06:43:26;17.10;99.90
46490;DHT22;32204;49.160;8.580;2022-10-16T06:45:56;17.20;99.90
46490;DHT22;32204;49.160;8.580;2022-10-16T06:48:22;17.20;99.90
46490;DHT22;32204;49.160;8.580;2022-10-16T06:51:08;17.00;99.90
46490;DHT22;32204;49.160;8.580;2022-10-16T06:53:36;17.00;99.90
46490;DHT22;32204;49.160;8.580;2022-10-16T06:56:13;17.00;99.90
46490;DHT22;32204;49.160;8.580;2022-10-16T06:58:39;16.90;99.90
46490;DHT22;32204;49.160;8.580;2022-10-16T07:01:06;17.00;99.90
46490;DHT22;32204;49.160;8.580;2022-10-16T07:03:32;17.10;99.90
46490;DHT22;32204;49.160;8.580;2022-10-16T07:06:05;17.20;99.90
46490;DHT22;32204;49.160;8.580;2022-10-16T07:08:35;17.30;99.90
46490;DHT22;32204;49.160;8.580;2022-10-16T07:11:02;17.40;99.90
46490;DHT22;32204;49.160;8.580;2022-10-16T07:13:29;17.50;99.90
46490;DHT22;32204;49.160;8.580;2022-10-16T07:15:55;17.60;99.90
46490;DHT22;32204;49.160;8.580;2022-10-16T07:18:20;17.70;99.90
46490;DHT22;32204;49.160;8.580;2022-10-16T07:20:47;17.80;99.90
46490;DHT22;32204;49.160;8.580;2022-10-16T07:23:12;17.90;99.90
46490;DHT22;32204;49.160;8.580;2022-10-16T07:25:38;18.00;99.90
46490;DHT22;32204;49.160;8.580;2022-10-16T07:28:03;18.10;99.90
46490;DHT22;32204;49.160;8.580;2022-10-16T07:30:29;18.20;99.90
46490;DHT22;32204;49.160;8.580;2022-10-16T07:32:55;18.30;99.90
46490;DHT22;32204;49.160;8.580;2022-10-16T07:35:20;18.20;99.90
46490;DHT22;32204;49.160;8.580;2022-10-16T07:37:46;18.20;99.90
46490;DHT22;32204;49.160;8.580;2022-10-16T07:40:12;18.20;99.90
46490;DHT22;32204;49.160;8.580;2022-10-16T07:42:38;18.20;99.90
46490;DHT22;32204;49.160;8.580;2022-10-16T07:45:04;18.10;99.90
46490;DHT22;32204;49.160;8.580;2022-10-16T07:47:30;18.10;99.90
46490;DHT22;32204;49.160;8.580;2022-10-16T07:49:56;18.00;99.90
46490;DHT22;32204;49.160;8.580;2022-10-16T07:52:22;18.10;99.90
46490;DHT22;32204;49.160;8.580;2022-10-16T07:54:47;18.10;99.90
46490;DHT22;32204;49.160;8.580;2022-10-16T07:57:13;18.10;99.90
46490;DHT22;32204;49.160;8.580;2022-10-16T07:59:45;18.10;99.90
46490;DHT22;32204;49.160;8.580;2022-10-16T08:02:11;18.20;99.90
46490;DHT22;32204;49.160;8.580;2022-10-16T08:04:37;18.20;99.90
46490;DHT22;32204;49.160;8.580;2022-10-16T08:07:02;18.30;99.90
46490;DHT22;32204;49.160;8.580;2022-10-16T08:09:28;18.30;99.90
46490;DHT22;32204;49.160;8.580;2022-10-16T08:11:53;18.40;99.90
46490;DHT22;32204;49.160;8.580;2022-10-16T08:14:19;18.40;99.90
46490;DHT22;32204;49.160;8.580;2022-10-16T08:16:45;18.50;99.90
46490;DHT22;32204;49.160;8.580;2022-10-16T08:19:10;18.50;99.90
46490;DHT22;32204;49.160;8.580;2022-10-16T08:21:36;18.50;99.90
46490;DHT22;32204;49.160;8.580;2022-10-16T08:24:02;18.40;99.90
46490;DHT22;32204;49.160;8.580;2022-10-16T08:26:27;18.40;99.90
46490;DHT22;32204;49.160;8.580;2022-10-16T08:28:54;18.30;99.90
46490;DHT22;32204;49.160;8.580;2022-10-16T08:31:20;18.20;99.90
46490;DHT22;32204;49.160;8.580;2022-10-16T08:33:46;18.30;99.90
46490;DHT22;32204;49.160;8.580;2022-10-16T08:36:13;18.40;99.90
46490;DHT22;32204;49.160;8.580;2022-10-16T08:38:39;18.50;99.90
46490;DHT22;32204;49.160;8.580;2022-10-16T08:44:18;18.70;99.90
46490;DHT22;32204;49.160;8.580;2022-10-16T08:49:29;18.70;99.90
46490;DHT22;32204;49.160;8.580;2022-10-16T08:51:56;18.80;99.90
46490;DHT22;32204;49.160;8.580;2022-10-16T08:54:28;18.80;99.90
46490;DHT22;32204;49.160;8.580;2022-10-16T08:56:56;18.70;99.90
46490;DHT22;32204;49.160;8.580;2022-10-16T08:59:22;18.70;99.90
46490;DHT22;32204;49.160;8.580;2022-10-16T09:01:50;18.80;99.90
46490;DHT22;32204;49.160;8.580;2022-10-16T09:15:31;18.90;99.90
46490;DHT22;32204;49.160;8.580;2022-10-16T09:18:12;18.80;99.90
46490;DHT22;32204;49.160;8.580;2022-10-16T09:20:49;18.90;99.90
46490;DHT22;32204;49.160;8.580;2022-10-16T09:23:28;19.00;99.90
46490;DHT22;32204;49.160;8.580;2022-10-16T09:25:56;19.10;99.90
46490;DHT22;32204;49.160;8.580;2022-10-16T09:28:23;19.30;99.90
46490;DHT22;32204;49.160;8.580;2022-10-16T09:30:50;19.40;99.90
46490;DHT22;32204;49.160;8.580;2022-10-16T09:33:19;19.50;99.90
46490;DHT22;32204;49.160;8.580;2022-10-16T09:35:50;19.60;99.90
46490;DHT22;32204;49.160;8.580;2022-10-16T09:38:28;19.50;99.90
46490;DHT22;32204;49.160;8.580;2022-10-16T09:40:55;19.60;99.90
46490;DHT22;32204;49.160;8.580;2022-10-16T09:43:23;19.70;99.90
46490;DHT22;32204;49.160;8.580;2022-10-16T09:45:58;19.70;99.90
46490;DHT22;32204;49.160;8.580;2022-10-16T09:48:30;19.80;99.90
46490;DHT22;32204;49.160;8.580;2022-10-16T09:51:02;19.90;99.90
46490;DHT22;32204;49.160;8.580;2022-10-16T09:53:43;20.00;99.90
46490;DHT22;32204;49.160;8.580;2022-10-16T09:56:11;20.10;99.90
46490;DHT22;32204;49.160;8.580;2022-10-16T09:58:42;20.20;99.90
46490;DHT22;32204;49.160;8.580;2022-10-16T10:01:14;20.00;99.90
46490;DHT22;32204;49.160;8.580;2022-10-16T10:03:42;20.30;99.90
46490;DHT22;32204;49.160;8.580;2022-10-16T10:08:56;20.50;99.90
46490;DHT22;32204;49.160;8.580;2022-10-16T10:11:48;20.40;99.90
46490;DHT22;32204;49.160;8.580;2022-10-16T10:17:11;20.80;99.90
46490;DHT22;32204;49.160;8.580;2022-10-16T10:30:36;21.40;99.90
46490;DHT22;32204;49.160;8.580;2022-10-16T10:44:23;21.60;99.90
46490;DHT22;32204;49.160;8.580;2022-10-16T10:55:05;21.90;99.90
46490;DHT22;32204;49.160;8.580;2022-10-16T11:00:30;22.10;99.90
46490;DHT22;32204;49.160;8.580;2022-10-16T11:03:12;22.10;99.90
46490;DHT22;32204;49.160;8.580;2022-10-16T11:05:44;22.30;1.00
46490;DHT22;32204;49.160;8.580;2022-10-16T11:08:17;22.40;99.90
46490;DHT22;32204;49.160;8.580;2022-10-16T11:16:38;22.50;1.00
46490;DHT22;32204;49.160;8.580;2022-10-16T11:22:14;22.00;99.90
46490;DHT22;32204;49.160;8.580;2022-10-16T11:30:20;21.70;93.00
46490;DHT22;32204;49.160;8.580;2022-10-16T11:35:48;21.70;1.00
46490;DHT22;32204;49.160;8.580;2022-10-16T11:38:32;21.70;1.00
46490;DHT22;32204;49.160;8.580;2022-10-16T11:41:29;21.80;8.60
46490;DHT22;32204;49.160;8.580;2022-10-16T11:46:26;21.80;1.00
46490;DHT22;32204;49.160;8.580;2022-10-16T11:49:02;21.70;1.00
46490;DHT22;32204;49.160;8.580;2022-10-16T11:51:45;21.80;1.00
46490;DHT22;32204;49.160;8.580;2022-10-16T11:54:50;21.90;99.90
46490;DHT22;32204;49.160;8.580;2022-10-16T11:57:24;21.90;99.90
46490;DHT22;32204;49.160;8.580;2022-10-16T12:00:02;22.00;99.90
46490;DHT22;32204;49.160;8.580;2022-10-16T12:02:57;21.90;1.00
46490;DHT22;32204;49.160;8.580;2022-10-16T12:05:33;22.00;99.90
46490;DHT22;32204;49.160;8.580;2022-10-16T12:08:14;22.10;99.90
46490;DHT22;32204;49.160;8.580;2022-10-16T12:10:43;22.20;99.90
46490;DHT22;32204;49.160;8.580;2022-10-16T12:16:25;22.50;99.90
46490;DHT22;32204;49.160;8.580;2022-10-16T12:19:35;22.40;1.00
46490;DHT22;32204;49.160;8.580;2022-10-16T12:22:00;22.40;99.90
46490;DHT22;32204;49.160;8.580;2022-10-16T12:24:38;22.50;99.90
46490;DHT22;32204;49.160;8.580;2022-10-16T12:27:30;22.60;99.90
46490;DHT22;32204;49.160;8.580;2022-10-16T12:30:04;22.60;99.90
46490;DHT22;32204;49.160;8.580;2022-10-16T12:32:36;22.60;1.00
46490;DHT22;32204;49.160;8.580;2022-10-16T12:35:04;22.50;1.00
46490;DHT22;32204;49.160;8.580;2022-10-16T12:37:35;22.50;1.00
46490;DHT22;32204;49.160;8.580;2022-10-16T12:40:23;22.60;1.00
46490;DHT22;32204;49.160;8.580;2022-10-16T12:42:50;22.80;1.00
46490;DHT22;32204;49.160;8.580;2022-10-16T12:47:54;22.90;99.90
46490;DHT22;32204;49.160;8.580;2022-10-16T12:50:25;22.80;99.90
46490;DHT22;32204;49.160;8.580;2022-10-16T12:52:51;22.70;99.90
46490;DHT22;32204;49.160;8.580;2022-10-16T12:55:18;22.70;99.90
46490;DHT22;32204;49.160;8.580;2022-10-16T13:00:53;22.50;99.90
46490;DHT22;32204;49.160;8.580;2022-10-16T13:06:45;22.50;1.00
46490;DHT22;32204;49.160;8.580;2022-10-16T13:09:53;22.40;99.90
46490;DHT22;32204;49.160;8.580;2022-10-16T13:15:28;22.10;99.90
46490;DHT22;32204;49.160;8.580;2022-10-16T13:20:43;22.00;99.90
46490;DHT22;32204;49.160;8.580;2022-10-16T13:26:01;22.00;99.90
46490;DHT22;32204;49.160;8.580;2022-10-16T13:28:32;22.00;99.90
46490;DHT22;32204;49.160;8.580;2022-10-16T13:30:59;22.00;99.90
46490;DHT22;32204;49.160;8.580;2022-10-16T13:33:35;21.90;99.90
46490;DHT22;32204;49.160;8.580;2022-10-16T13:36:03;21.80;99.90
46490;DHT22;32204;49.160;8.580;2022-10-16T13:38:35;21.80;1.00
46490;DHT22;32204;49.160;8.580;2022-10-16T13:41:20;21.90;53.90
46490;DHT22;32204;49.160;8.580;2022-10-16T13:43:51;21.90;1.00
46490;DHT22;32204;49.160;8.580;2022-10-16T13:46:22;22.00;21.50
46490;DHT22;32204;49.160;8.580;2022-10-16T13:48:59;22.00;1.00
46490;DHT22;32204;49.160;8.580;2022-10-16T13:51:25;22.00;7.10
46490;DHT22;32204;49.160;8.580;2022-10-16T13:53:51;22.00;1.00
46490;DHT22;32204;49.160;8.580;2022-10-16T13:56:20;21.90;1.00
46490;DHT22;32204;49.160;8.580;2022-10-16T13:58:46;21.80;99.90
46490;DHT22;32204;49.160;8.580;2022-10-16T14:01:25;21.80;99.90
46490;DHT22;32204;49.160;8.580;2022-10-16T14:03:51;21.80;99.90
46490;DHT22;32204;49.160;8.580;2022-10-16T14:06:20;21.80;1.00
46490;DHT22;32204;49.160;8.580;2022-10-16T14:11:50;21.80;99.90
46490;DHT22;32204;49.160;8.580;2022-10-16T14:14:17;21.80;99.90
46490;DHT22;32204;49.160;8.580;2022-10-16T14:16:44;21.70;99.90
46490;DHT22;32204;49.160;8.580;2022-10-16T14:19:29;21.60;99.90
46490;DHT22;32204;49.160;8.580;2022-10-16T14:21:59;21.60;1.00
46490;DHT22;32204;49.160;8.580;2022-10-16T14:24:32;21.60;1.00
46490;DHT22;32204;49.160;8.580;2022-10-16T14:26:59;21.60;19.00
46490;DHT22;32204;49.160;8.580;2022-10-16T14:29:26;21.50;61.60
46490;DHT22;32204;49.160;8.580;2022-10-16T14:34:31;21.50;99.90
46490;DHT22;32204;49.160;8.580;2022-10-16T14:37:00;21.50;99.90
46490;DHT22;32204;49.160;8.580;2022-10-16T14:39:27;21.50;99.90
46490;DHT22;32204;49.160;8.580;2022-10-16T14:41:57;21.50;99.90
46490;DHT22;32204;49.160;8.580;2022-10-16T14:44:28;21.50;99.90
46490;DHT22;32204;49.160;8.580;2022-10-16T14:46:54;21.40;99.90
46490;DHT22;32204;49.160;8.580;2022-10-16T14:49:20;21.40;99.90
46490;DHT22;32204;49.160;8.580;2022-10-16T14:51:47;21.30;99.90
46490;DHT22;32204;49.160;8.580;2022-10-16T14:54:15;21.40;99.90
46490;DHT22;32204;49.160;8.580;2022-10-16T14:57:15;21.40;99.90
46490;DHT22;32204;49.160;8.580;2022-10-16T14:59:42;21.50;99.90
46490;DHT22;32204;49.160;8.580;2022-10-16T15:02:28;21.50;99.90
46490;DHT22;32204;49.160;8.580;2022-10-16T15:04:55;21.70;99.90
46490;DHT22;32204;49.160;8.580;2022-10-16T15:07:21;21.80;54.90
46490;DHT22;32204;49.160;8.580;2022-10-16T15:09:47;21.90;82.80
46490;DHT22;32204;49.160;8.580;2022-10-16T15:12:12;21.80;99.90
46490;DHT22;32204;49.160;8.580;2022-10-16T15:14:38;21.70;99.90
46490;DHT22;32204;49.160;8.580;2022-10-16T15:17:04;21.60;99.90
46490;DHT22;32204;49.160;8.580;2022-10-16T15:19:30;21.50;99.90
46490;DHT22;32204;49.160;8.580;2022-10-16T15:21:55;21.50;99.90
46490;DHT22;32204;49.160;8.580;2022-10-16T15:24:21;21.50;99.90
46490;DHT22;32204;49.160;8.580;2022-10-16T15:26:47;21.40;99.90
46490;DHT22;32204;49.160;8.580;2022-10-16T15:29:14;21.40;99.90
46490;DHT22;32204;49.160;8.580;2022-10-16T15:31:40;21.40;99.90
46490;DHT22;32204;49.160;8.580;2022-10-16T15:34:09;21.30;99.90
46490;DHT22;32204;49.160;8.580;2022-10-16T15:36:37;21.30;1.00
46490;DHT22;32204;49.160;8.580;2022-10-16T15:39:14;21.30;1.00
46490;DHT22;32204;49.160;8.580;2022-10-16T15:41:40;21.20;1.00
46490;DHT22;32204;49.160;8.580;2022-10-16T15:44:06;21.20;1.00
46490;DHT22;32204;49.160;8.580;2022-10-16T15:46:32;21.10;1.00
46490;DHT22;32204;49.160;8.580;2022-10-16T15:48:59;21.00;1.00
46490;DHT22;32204;49.160;8.580;2022-10-16T15:51:25;21.00;47.70
46490;DHT22;32204;49.160;8.580;2022-10-16T15:53:57;20.90;30.90
46490;DHT22;32204;49.160;8.580;2022-10-16T15:56:23;20.90;92.60
46490;DHT22;32204;49.160;8.580;2022-10-16T15:58:54;21.00;94.00
46490;DHT22;32204;49.160;8.580;2022-10-16T16:01:20;21.00;99.90
46490;DHT22;32204;49.160;8.580;2022-10-16T16:03:46;20.90;99.90
46490;DHT22;32204;49.160;8.580;2022-10-16T16:06:13;20.70;99.90
46490;DHT22;32204;49.160;8.580;2022-10-16T16:08:39;20.60;99.90
46490;DHT22;32204;49.160;8.580;2022-10-16T16:11:10;20.70;99.90
46490;DHT22;32204;49.160;8.580;2022-10-16T16:13:36;20.80;99.90
46490;DHT22;32204;49.160;8.580;2022-10-16T16:16:12;20.80;99.90
46490;DHT22;32204;49.160;8.580;2022-10-16T16:18:38;20.80;99.90
46490;DHT22;32204;49.160;8.580;2022-10-16T16:21:04;20.80;99.90
46490;DHT22;32204;49.160;8.580;2022-10-16T16:23:30;20.60;99.90
46490;DHT22;32204;49.160;8.580;2022-10-16T16:26:06;20.50;99.90
46490;DHT22;32204;49.160;8.580;2022-10-16T16:28:33;20.40;99.90
46490;DHT22;32204;49.160;8.580;2022-10-16T16:30:59;20.30;99.90
46490;DHT22;32204;49.160;8.580;2022-10-16T16:33:24;20.20;99.90
46490;DHT22;32204;49.160;8.580;2022-10-16T16:35:50;20.10;99.90
46490;DHT22;32204;49.160;8.580;2022-10-16T16:38:16;20.10;99.90
46490;DHT22;32204;49.160;8.580;2022-10-16T16:40:41;20.10;99.90
46490;DHT22;32204;49.160;8.580;2022-10-16T16:43:07;20.00;99.90
46490;DHT22;32204;49.160;8.580;2022-10-16T16:45:36;19.90;99.90
46490;DHT22;32204;49.160;8.580;2022-10-16T16:48:02;19.90;99.90
46490;DHT22;32204;49.160;8.580;2022-10-16T16:50:27;19.80;99.90
46490;DHT22;32204;49.160;8.580;2022-10-16T16:52:53;19.80;99.90
46490;DHT22;32204;49.160;8.580;2022-10-16T16:55:19;19.70;99.90
46490;DHT22;32204;49.160;8.580;2022-10-16T16:57:47;19.50;99.90
46490;DHT22;32204;49.160;8.580;2022-10-16T17:00:13;19.40;99.90
46490;DHT22;32204;49.160;8.580;2022-10-16T17:02:39;19.30;99.90
46490;DHT22;32204;49.160;8.580;2022-10-16T17:05:09;19.30;99.90
46490;DHT22;32204;49.160;8.580;2022-10-16T17:07:34;19.30;99.90
46490;DHT22;32204;49.160;8.580;2022-10-16T17:10:01;19.20;99.90
46490;DHT22;32204;49.160;8.580;2022-10-16T17:12:26;19.00;99.90
46490;DHT22;32204;49.160;8.580;2022-10-16T17:14:53;18.90;99.90
46490;DHT22;32204;49.160;8.580;2022-10-16T17:17:19;18.80;99.90
46490;DHT22;32204;49.160;8.580;2022-10-16T17:19:45;18.80;99.90
46490;DHT22;32204;49.160;8.580;2022-10-16T17:22:10;18.80;99.90
46490;DHT22;32204;49.160;8.580;2022-10-16T17:24:36;18.70;99.90
46490;DHT22;32204;49.160;8.580;2022-10-16T17:27:02;18.70;99.90
46490;DHT22;32204;49.160;8.580;2022-10-16T17:29:28;18.70;99.90
46490;DHT22;32204;49.160;8.580;2022-10-16T17:31:55;18.60;99.90
46490;DHT22;32204;49.160;8.580;2022-10-16T17:34:21;18.60;99.90